createdAt,value
2022-11-05T00:02:34.749Z,11.37
2022-11-05T00:05:25.739Z,11.34
2022-11-05T00:08:13.998Z,11.29
2022-11-05T00:10:46.280Z,11.23
2022-11-05T00:13:36.509Z,11.18
2022-11-05T00:16:35.475Z,11.16
2022-11-05T00:19:07.572Z,11.11
2022-11-05T00:22:02.722Z,11.07
2022-11-05T00:24:52.691Z,11.02
2022-11-05T00:27:25.108Z,10.98
2022-11-05T00:29:57.395Z,10.94
2022-11-05T00:32:29.641Z,10.93
2022-11-05T00:35:01.946Z,10.90
2022-11-05T00:37:34.182Z,10.86
2022-11-05T00:40:08.593Z,10.83
2022-11-05T00:43:00.617Z,10.79
2022-11-05T00:45:33.402Z,10.75
2022-11-05T00:48:23.587Z,10.72
2022-11-05T00:50:55.884Z,10.67
2022-11-05T00:53:28.087Z,10.64
2022-11-05T00:56:00.471Z,10.61
2022-11-05T00:58:32.817Z,10.60
2022-11-05T01:01:07.142Z,10.58
2022-11-05T01:03:40.753Z,10.53
2022-11-05T01:06:16.172Z,10.42
2022-11-05T01:08:49.021Z,10.34
2022-11-05T01:11:34.123Z,10.27
2022-11-05T01:14:09.333Z,10.21
2022-11-05T01:16:42.169Z,10.18
2022-11-05T01:19:15.080Z,10.13
2022-11-05T01:21:47.186Z,10.08
2022-11-05T01:24:25.908Z,10.03
2022-11-05T01:26:58.160Z,9.98
2022-11-05T01:29:30.249Z,9.94
2022-11-05T01:32:02.320Z,9.88
2022-11-05T01:34:34.455Z,9.83
2022-11-05T01:37:08.311Z,9.81
2022-11-05T01:39:40.492Z,9.80
2022-11-05T01:42:23.060Z,9.77
2022-11-05T01:45:05.224Z,9.76
2022-11-05T01:47:47.077Z,9.73
2022-11-05T01:50:31.487Z,9.68
2022-11-05T01:53:14.162Z,9.66
2022-11-05T01:55:52.840Z,9.64
2022-11-05T01:58:29.878Z,9.63
2022-11-05T02:01:02.268Z,9.60
2022-11-05T02:03:35.114Z,9.57
2022-11-05T02:06:09.497Z,9.56
2022-11-05T02:08:53.885Z,9.55
2022-11-05T02:11:26.303Z,9.55
2022-11-05T02:13:58.409Z,9.58
2022-11-05T02:16:42.510Z,9.59
2022-11-05T02:19:43.606Z,9.59
2022-11-05T02:22:40.306Z,9.56
2022-11-05T02:25:43.546Z,9.55
2022-11-05T02:28:45.435Z,9.55
2022-11-05T02:31:24.937Z,9.55
2022-11-05T02:34:08.421Z,9.54
2022-11-05T02:36:50.087Z,9.54
2022-11-05T02:39:37.777Z,9.53
2022-11-05T02:42:20.529Z,9.52
2022-11-05T02:45:01.909Z,9.51
2022-11-05T02:47:42.911Z,9.52
2022-11-05T02:50:26.347Z,9.52
2022-11-05T02:53:04.147Z,9.53
2022-11-05T02:55:39.064Z,9.53
2022-11-05T02:58:11.801Z,9.53
2022-11-05T03:00:49.633Z,9.54
2022-11-05T03:03:32.111Z,9.54
2022-11-05T03:06:37.906Z,9.53
2022-11-05T03:09:49.957Z,9.50
2022-11-05T03:12:32.036Z,9.49
2022-11-05T03:15:16.957Z,9.47
2022-11-05T03:18:00.277Z,9.46
2022-11-05T03:20:39.042Z,9.44
2022-11-05T03:23:27.885Z,9.45
2022-11-05T03:26:05.995Z,9.45
2022-11-05T03:28:41.919Z,9.45
2022-11-05T03:31:15.594Z,9.45
2022-11-05T03:33:50.224Z,9.47
2022-11-05T03:36:26.549Z,9.47
2022-11-05T03:39:02.679Z,9.47
2022-11-05T03:41:37.111Z,9.46
2022-11-05T03:44:16.764Z,9.47
2022-11-05T03:46:53.179Z,9.48
2022-11-05T03:49:30.863Z,9.47
2022-11-05T03:52:08.584Z,9.49
2022-11-05T03:54:41.217Z,9.48
2022-11-05T03:57:19.385Z,9.48
2022-11-05T03:59:53.148Z,9.47
2022-11-05T04:02:28.501Z,9.47
2022-11-05T04:05:00.684Z,9.46
2022-11-05T04:07:50.706Z,9.43
2022-11-05T04:10:40.347Z,9.41
2022-11-05T04:13:25.411Z,9.40
2022-11-05T04:16:16.655Z,9.41
2022-11-05T04:18:48.726Z,9.41
2022-11-05T04:21:38.728Z,9.40
2022-11-05T04:24:14.788Z,9.39
2022-11-05T04:26:47.536Z,9.36
2022-11-05T04:29:37.096Z,9.35
2022-11-05T04:32:09.455Z,9.36
2022-11-05T04:34:41.594Z,9.37
2022-11-05T04:37:13.658Z,9.37
2022-11-05T04:39:45.767Z,9.38
2022-11-05T04:42:17.833Z,9.37
2022-11-05T04:44:50.313Z,9.38
2022-11-05T04:47:23.195Z,9.38
2022-11-05T04:49:55.289Z,9.38
2022-11-05T04:52:27.376Z,9.39
2022-11-05T04:55:02.379Z,9.40
2022-11-05T04:57:34.841Z,9.42
2022-11-05T05:00:09.325Z,9.44
2022-11-05T05:02:43.551Z,9.44
2022-11-05T05:05:16.197Z,9.42
2022-11-05T05:07:48.302Z,9.39
2022-11-05T05:10:20.752Z,9.42
2022-11-05T05:12:52.764Z,9.43
2022-11-05T05:15:25.536Z,9.46
2022-11-05T05:17:57.648Z,9.46
2022-11-05T05:20:47.376Z,9.46
2022-11-05T05:23:19.481Z,9.44
2022-11-05T05:25:51.529Z,9.44
2022-11-05T05:28:23.703Z,9.46
2022-11-05T05:30:59.404Z,9.47
2022-11-05T05:33:32.100Z,9.50
2022-11-05T05:36:11.111Z,9.51
2022-11-05T05:38:44.015Z,9.50
2022-11-05T05:41:16.409Z,9.52
2022-11-05T05:43:50.132Z,9.53
2022-11-05T05:46:22.131Z,9.53
2022-11-05T05:48:54.906Z,9.52
2022-11-05T05:51:27.060Z,9.52
2022-11-05T05:53:59.206Z,9.52
2022-11-05T05:56:31.366Z,9.51
2022-11-05T05:59:03.553Z,9.50
2022-11-05T06:01:35.665Z,9.48
2022-11-05T06:04:12.237Z,9.47
2022-11-05T06:06:46.909Z,9.48
2022-11-05T06:09:19.290Z,9.45
2022-11-05T06:11:51.332Z,9.47
2022-11-05T06:14:23.451Z,9.49
2022-11-05T06:16:55.487Z,9.48
2022-11-05T06:19:27.522Z,9.49
2022-11-05T06:21:59.520Z,9.48
2022-11-05T06:24:31.522Z,9.49
2022-11-05T06:27:03.613Z,9.49
2022-11-05T06:29:35.609Z,9.49
2022-11-05T06:32:07.911Z,9.49
2022-11-05T06:34:40.019Z,9.51
2022-11-05T06:37:12.666Z,9.54
2022-11-05T06:39:45.107Z,9.55
2022-11-05T06:42:19.084Z,9.56
2022-11-05T06:44:52.119Z,9.56
2022-11-05T06:47:26.802Z,9.55
2022-11-05T06:49:59.242Z,9.56
2022-11-05T06:52:31.468Z,9.57
2022-11-05T06:55:03.947Z,9.60
2022-11-05T06:57:38.185Z,9.58
2022-11-05T07:00:12.303Z,9.58
2022-11-05T07:02:47.155Z,9.59
2022-11-05T07:05:19.642Z,9.59
2022-11-05T07:07:51.607Z,9.60
2022-11-05T07:10:24.011Z,9.60
2022-11-05T07:12:56.002Z,9.58
2022-11-05T07:15:28.135Z,9.57
2022-11-05T07:18:02.161Z,9.55
2022-11-05T07:20:34.783Z,9.56
2022-11-05T07:23:09.072Z,9.59
2022-11-05T07:25:43.023Z,9.61
2022-11-05T07:28:15.745Z,9.63
2022-11-05T07:30:48.347Z,9.67
2022-11-05T07:33:20.809Z,9.69
2022-11-05T07:35:52.876Z,9.70
2022-11-05T07:38:25.312Z,9.70
2022-11-05T07:40:59.972Z,9.69
2022-11-05T07:44:30.027Z,9.67
2022-11-05T07:48:13.365Z,9.69
2022-11-05T07:50:54.074Z,9.70
2022-11-05T07:53:26.458Z,9.72
2022-11-05T07:56:05.662Z,9.74
2022-11-05T07:58:38.379Z,9.78
2022-11-05T08:10:50.018Z,9.82
2022-11-05T08:13:28.215Z,9.85
2022-11-05T08:16:02.132Z,9.88
2022-11-05T08:18:40.440Z,9.88
2022-11-05T08:21:13.371Z,9.85
2022-11-05T08:23:52.359Z,9.84
2022-11-05T08:26:24.572Z,9.86
2022-11-05T08:30:10.746Z,9.87
2022-11-05T08:32:42.848Z,9.87
2022-11-05T08:35:15.333Z,9.89
2022-11-05T08:37:56.618Z,9.91
2022-11-05T08:45:25.066Z,9.88
2022-11-05T08:48:05.081Z,9.86
2022-11-05T08:50:38.342Z,9.88
2022-11-05T08:53:18.325Z,9.89
2022-11-05T08:55:51.565Z,9.90
2022-11-05T08:58:30.944Z,9.89
2022-11-05T09:01:11.588Z,9.86
2022-11-05T09:04:00.214Z,9.88
2022-11-05T09:06:39.177Z,9.87
2022-11-05T09:09:27.213Z,9.90
2022-11-05T09:12:12.293Z,9.91
2022-11-05T09:15:35.635Z,9.91
2022-11-05T09:18:08.225Z,9.95
2022-11-05T09:20:47.312Z,9.97
2022-11-05T09:23:19.523Z,10.00
2022-11-05T09:25:58.088Z,10.02
2022-11-05T09:28:31.610Z,10.03
2022-11-05T09:31:12.022Z,10.02
2022-11-05T09:38:36.878Z,10.04
2022-11-05T09:41:21.119Z,10.04
2022-11-05T09:44:23.594Z,10.04
2022-11-05T09:50:47.754Z,10.09
2022-11-05T09:53:27.037Z,10.10
2022-11-05T09:56:01.806Z,10.06
2022-11-05T10:04:43.907Z,10.03
2022-11-05T10:11:21.640Z,10.09
2022-11-05T10:13:57.917Z,10.11
2022-11-05T10:16:33.267Z,10.11
2022-11-05T10:19:09.845Z,10.12
2022-11-05T10:22:05.451Z,10.13
2022-11-05T10:24:35.251Z,10.10
2022-11-05T10:27:08.104Z,10.05
2022-11-05T10:29:40.255Z,10.01
2022-11-05T10:37:19.558Z,10.02
2022-11-05T10:39:52.084Z,10.03
2022-11-05T10:46:36.606Z,10.06
2022-11-05T10:49:23.922Z,10.03
2022-11-05T10:51:59.300Z,10.01
2022-11-05T10:54:36.047Z,10.01
2022-11-05T10:57:30.990Z,10.02
2022-11-05T11:00:24.562Z,10.01
2022-11-05T11:02:59.517Z,10.00
2022-11-05T11:05:36.677Z,10.01
2022-11-05T11:08:24.334Z,10.02
2022-11-05T11:10:59.102Z,10.07
2022-11-05T11:13:49.847Z,10.13
2022-11-05T11:16:25.983Z,10.16
2022-11-05T11:19:00.965Z,10.11
2022-11-05T11:21:35.011Z,10.08
2022-11-05T11:24:20.080Z,10.08
2022-11-05T11:27:04.671Z,10.06
2022-11-05T11:29:42.001Z,10.06
2022-11-05T11:32:19.446Z,10.06
2022-11-05T11:34:55.106Z,10.06
2022-11-05T11:37:29.802Z,10.07
2022-11-05T11:40:04.589Z,10.08
2022-11-05T11:42:41.088Z,10.10
2022-11-05T11:45:25.040Z,10.08
2022-11-05T11:47:58.813Z,10.04
2022-11-05T11:50:39.664Z,10.04
2022-11-05T11:53:36.527Z,10.04
2022-11-05T11:56:18.083Z,10.02
2022-11-05T11:58:52.061Z,10.03
2022-11-05T12:02:03.249Z,10.05
2022-11-05T12:04:57.986Z,10.05
2022-11-05T12:07:43.512Z,10.05
2022-11-05T12:10:34.992Z,10.01
2022-11-05T12:13:31.122Z,9.97
2022-11-05T12:16:12.733Z,9.91
2022-11-05T12:18:50.124Z,9.91
2022-11-05T12:21:51.497Z,9.91
2022-11-05T12:24:56.526Z,9.90
2022-11-05T12:27:46.021Z,9.86
2022-11-05T12:30:20.611Z,9.84
2022-11-05T12:33:11.438Z,9.84
2022-11-05T12:36:00.298Z,9.83
2022-11-05T12:38:53.585Z,9.83
2022-11-05T12:41:28.948Z,9.81
2022-11-05T12:44:16.483Z,9.76
2022-11-05T12:47:12.986Z,9.73
2022-11-05T12:50:04.053Z,9.72
2022-11-05T12:53:40.608Z,9.73
2022-11-05T12:56:18.476Z,9.75
2022-11-05T12:58:56.127Z,9.74
2022-11-05T13:05:58.162Z,9.81
2022-11-05T13:12:43.710Z,9.84
2022-11-05T13:15:50.906Z,9.83
2022-11-05T13:18:29.041Z,9.77
2022-11-05T13:21:03.256Z,9.76
2022-11-05T13:23:41.079Z,9.77
2022-11-05T13:26:19.934Z,9.76
2022-11-05T13:28:56.862Z,9.76
2022-11-05T13:31:35.328Z,9.72
2022-11-05T13:34:13.286Z,9.70
2022-11-05T13:37:10.771Z,9.70
2022-11-05T13:39:49.024Z,9.72
2022-11-05T13:42:58.974Z,9.72
2022-11-05T13:46:06.236Z,9.70
2022-11-05T13:49:06.548Z,9.67
2022-11-05T13:51:53.215Z,9.66
2022-11-05T13:55:07.979Z,9.67
2022-11-05T13:58:10.509Z,9.64
2022-11-05T14:00:47.724Z,9.63
2022-11-05T14:03:22.169Z,9.61
2022-11-05T14:06:00.490Z,9.61
2022-11-05T14:08:40.585Z,9.62
2022-11-05T14:11:25.865Z,9.61
2022-11-05T14:14:02.545Z,9.59
2022-11-05T14:16:52.402Z,9.60
2022-11-05T14:19:50.597Z,9.60
2022-11-05T14:22:40.265Z,9.60
2022-11-05T14:25:55.376Z,9.59
2022-11-05T14:28:50.803Z,9.57
2022-11-05T14:31:54.308Z,9.58
2022-11-05T14:34:42.216Z,9.60
2022-11-05T14:37:39.477Z,9.63
2022-11-05T15:03:03.308Z,9.55
2022-11-05T15:19:03.159Z,9.50
2022-11-05T15:27:24.348Z,9.48
2022-11-05T15:34:26.224Z,9.44
2022-11-05T15:37:00.809Z,9.43
2022-11-05T15:43:50.935Z,9.44
2022-11-05T15:46:41.855Z,9.47
2022-11-05T15:49:14.231Z,9.49
2022-11-05T15:56:30.937Z,9.49
2022-11-05T15:59:05.470Z,9.51
2022-11-05T16:03:25.497Z,9.53
2022-11-05T16:05:59.542Z,9.52
2022-11-05T16:16:54.206Z,9.49
2022-11-05T16:28:52.737Z,9.40
2022-11-05T16:40:27.957Z,9.35
2022-11-05T16:46:55.904Z,9.32
2022-11-05T16:50:25.250Z,9.35
2022-11-05T16:52:57.304Z,9.34
2022-11-05T16:55:57.070Z,9.32
2022-11-05T16:58:29.285Z,9.31
2022-11-05T17:01:04.936Z,9.32
2022-11-05T17:03:55.351Z,9.35
2022-11-05T17:06:27.436Z,9.36
2022-11-05T17:09:05.665Z,9.35
2022-11-05T17:12:10.140Z,9.35
2022-11-05T17:14:44.790Z,9.36
2022-11-05T17:17:41.191Z,9.37
2022-11-05T17:23:41.308Z,9.33
2022-11-05T17:26:15.257Z,9.29
2022-11-05T17:33:21.894Z,9.28
2022-11-05T17:36:19.101Z,9.26
2022-11-05T17:43:23.038Z,9.27
2022-11-05T17:45:59.984Z,9.27
2022-11-05T17:50:24.084Z,9.26
2022-11-05T17:53:02.718Z,9.24
2022-11-05T17:55:34.706Z,9.24
2022-11-05T17:58:06.738Z,9.24
2022-11-05T18:09:41.746Z,9.21
2022-11-05T18:12:13.789Z,9.22
2022-11-05T18:15:58.344Z,9.24
2022-11-05T18:18:31.175Z,9.23
2022-11-05T18:26:16.489Z,9.21
2022-11-05T18:28:51.807Z,9.20
2022-11-05T18:32:12.604Z,9.17
2022-11-05T18:35:56.730Z,9.17
2022-11-05T18:38:28.859Z,9.15
2022-11-05T18:41:26.194Z,9.15
2022-11-05T18:48:26.828Z,9.11
2022-11-05T18:51:01.858Z,9.12
2022-11-05T18:54:34.846Z,9.12
2022-11-05T18:57:06.954Z,9.12
2022-11-05T19:01:06.334Z,9.12
2022-11-05T19:03:39.081Z,9.13
2022-11-05T19:06:12.419Z,9.15
2022-11-05T19:08:51.363Z,9.15
2022-11-05T19:11:26.266Z,9.15
2022-11-05T19:18:40.243Z,9.13
2022-11-05T19:21:54.520Z,9.11
2022-11-05T19:24:26.833Z,9.07
2022-11-05T19:27:15.199Z,9.03
2022-11-05T19:48:31.560Z,8.97
2022-11-05T19:59:46.908Z,8.90
2022-11-05T20:02:19.198Z,8.89
2022-11-05T20:05:18.155Z,8.91
2022-11-05T20:07:52.963Z,8.90
2022-11-05T20:11:15.384Z,8.91
2022-11-05T20:18:59.777Z,8.94
2022-11-05T20:21:33.288Z,8.94
2022-11-05T20:24:06.293Z,8.93
2022-11-05T20:31:36.868Z,8.92
2022-11-05T20:34:08.973Z,8.91
2022-11-05T20:46:39.180Z,8.90
2022-11-05T20:49:11.538Z,8.91
2022-11-05T20:56:09.546Z,8.85
2022-11-05T20:58:41.560Z,8.84
2022-11-05T21:01:16.886Z,8.84
2022-11-05T21:03:49.398Z,8.85
2022-11-05T21:06:21.442Z,8.84
2022-11-05T21:08:54.613Z,8.84
2022-11-05T21:11:26.552Z,8.83
2022-11-05T21:13:58.702Z,8.82
2022-11-05T21:16:31.021Z,8.78
2022-11-05T21:19:05.206Z,8.78
2022-11-05T21:21:41.069Z,8.78
2022-11-05T21:24:13.687Z,8.77
2022-11-05T21:26:46.438Z,8.76
2022-11-05T21:29:19.177Z,8.77
2022-11-05T21:31:51.395Z,8.75
2022-11-05T21:34:25.045Z,8.73
2022-11-05T21:36:57.371Z,8.70
2022-11-05T21:39:29.696Z,8.63
2022-11-05T21:42:01.994Z,8.60
2022-11-05T21:44:34.037Z,8.60
2022-11-05T21:47:06.213Z,8.58
2022-11-05T21:49:38.972Z,8.56
2022-11-05T21:52:32.091Z,8.54
2022-11-05T21:55:21.826Z,8.49
2022-11-05T21:58:11.585Z,8.48
2022-11-05T22:00:43.822Z,8.47
2022-11-05T22:03:15.862Z,8.45
2022-11-05T22:05:50.317Z,8.44
2022-11-05T22:08:22.828Z,8.42
2022-11-05T22:10:54.893Z,8.39
2022-11-05T22:13:26.887Z,8.35
2022-11-05T22:16:01.936Z,8.33
2022-11-05T22:18:34.028Z,8.32
2022-11-05T22:21:06.528Z,8.30
2022-11-05T22:23:38.950Z,8.30
2022-11-05T22:26:14.236Z,8.30
2022-11-05T22:28:46.305Z,8.30
2022-11-05T22:31:18.992Z,8.28
2022-11-05T22:33:51.907Z,8.26
2022-11-05T22:36:24.155Z,8.27
2022-11-05T22:38:56.363Z,8.25
2022-11-05T22:41:28.530Z,8.22
2022-11-05T22:44:00.823Z,8.19
2022-11-05T22:46:33.452Z,8.15
2022-11-05T22:49:07.570Z,8.12
2022-11-05T22:51:40.683Z,8.10
2022-11-05T22:54:13.694Z,8.08
2022-11-05T22:56:45.718Z,8.04
2022-11-05T22:59:19.013Z,8.00
2022-11-05T23:01:51.617Z,7.97
2022-11-05T23:04:24.009Z,7.95
2022-11-05T23:07:13.842Z,7.89
2022-11-05T23:10:03.947Z,7.85
2022-11-05T23:12:38.962Z,7.77
2022-11-05T23:15:32.598Z,7.71
2022-11-05T23:18:22.697Z,7.63
2022-11-05T23:21:13.257Z,7.57
2022-11-05T23:24:03.492Z,7.49
2022-11-05T23:26:54.012Z,7.40
2022-11-05T23:29:26.654Z,7.32
2022-11-05T23:32:16.521Z,7.26
2022-11-05T23:34:50.939Z,7.22
2022-11-05T23:37:42.334Z,7.18
2022-11-05T23:40:19.532Z,7.12
2022-11-05T23:43:09.463Z,7.10
2022-11-05T23:46:00.240Z,7.10
2022-11-05T23:48:40.446Z,7.07
2022-11-05T23:51:12.376Z,7.04
2022-11-05T23:53:44.557Z,7.01
2022-11-05T23:56:18.228Z,6.98
2022-11-05T23:58:52.487Z,6.94
